Terminal Aerodrome Forecast
Issued by NWS Grand Rapids, MI

Home | Current Version | Previous Version | Text Only | Print | Product List | Glossary On
Versions: 1 2 3 4 5 6 7 8 9 10 11 12 13 14 15 16 17 18 19 20 21 22
000
FTUS43 KGRR 191700 RRA
TAFGRR
TAF
KGRR 191741Z 1918/2018 VRB03KT P6SM SCT019
     FM192100 VRB03KT P6SM BKN018
     FM201200 VRB02KT P6SM OVC010=

USA.gov is the U.S. government's official web portal to all federal, state and local government web resources and services.